Airfield :
LOGIN :

Register | Disclaimer

   EN    FR    IT 

 










Legend :    VFR   Marginal VFR   IFR   Intensive IFR   Very Intensive IFR
Visi :
Ceiling :
>= 8 km
>= 3000ft
5 to 8 km
1000 to 3000 ft
1500m to 5 km
500 to 1000 ft
800 to 1500m
200 to 500 ft
< 800m
< 200 ft
Symbols :   Thunderstorms  Fog  Heavy snow  Heavy precipitations  Wind > 20 kt
SIGMETs :     Misc.  Thunderstorms  Icing  Turbulence  Mountain Waves  Volcanic Ashes







- Airport Elevation : 289 ft
- IATA code : ZAD


LDZD - Zadar

CURRENT METAR :
  • 220030Z 07006KT 040V100 CAVOK 24/15 Q1013

EXPIRED METARs :
  • 220000Z 08004KT 040V110 CAVOK 24/16 Q1013
  • 212330Z 12005KT CAVOK 24/18 Q1013 NOSIG
  • 212300Z 12006KT 080V140 CAVOK 23/18 Q1013 NOSIG
  • 212230Z 12005KT CAVOK 23/17 Q1013 NOSIG
  • 212200Z 13006KT CAVOK 23/16 Q1013 NOSIG

TAF TAF LDZD
Valid from the 22 at 00:00 until the 23 at 00:00 UTC


212325Z 2200/2224 13006KT CAVOK TX34/2212Z TN20/2203Z
PROB30
TEMPO 2200/2206 SHRA FEW040TCU SCT045
BECMG 2208/2210 22006KT
BECMG 2211/2213 30010KT
BECMG 2217/2219 VRB02KT
No reported NOTAMs for that airfield.
2 SIGMETs reported for the Zagreb FIR (LDZO) :
 
Embedded thunderstorms
LDZO SIGMET 1 VALID 220015/220200 LDZA
LDZO ZAGREB FIR EMBD TS FCST W OF E01500 TOP FL360 STNR INTSF=
Embedded thunderstorms
LDZO SIGMET 1 VALID 212245/220015 LDZA
LDZO ZAGREB FIR EMBD TS OBS W OF E01500 TOP FL360 STNR INTSF=



MET'MAP, your aeronautical weather chart ! - Copyright ORBIFLY December 2007 - Disclaimer

ORBIFLY MET'MAP TEAM :

Programming & Development : Alexandra Zaïnal
Concept & Development : Baudouin d'Aumeries
Co-Development & Prog : Marc-Olivier Méhu
Technical & hardware support : Manuel Goepfert

Contact : metmap@orbifly.com




SOURCES & CREDITS :

   NOAA